createdAt,value
2023-01-13T00:01:15.258Z,13.63
2023-01-13T00:03:42.871Z,14.40
2023-01-13T00:06:13.950Z,14.23
2023-01-13T00:08:40.749Z,13.20
2023-01-13T00:11:07.369Z,11.90
2023-01-13T00:13:35.400Z,12.98
2023-01-13T00:16:07.365Z,13.88
2023-01-13T00:18:36.839Z,14.27
2023-01-13T00:21:10.544Z,14.20
2023-01-13T00:23:37.168Z,17.27
2023-01-13T00:26:08.013Z,15.88
2023-01-13T00:28:35.222Z,16.80
2023-01-13T00:31:14.680Z,16.05
2023-01-13T00:33:41.577Z,19.45
2023-01-13T00:36:10.955Z,20.70
2023-01-13T00:38:38.906Z,21.25
2023-01-13T00:41:11.437Z,18.35
2023-01-13T00:43:38.444Z,19.25
2023-01-13T00:46:07.291Z,21.35
2023-01-13T00:48:34.072Z,18.08
2023-01-13T00:51:02.306Z,19.95
2023-01-13T00:53:29.946Z,18.60
2023-01-13T00:56:08.256Z,20.42
2023-01-13T00:58:36.126Z,16.98
2023-01-13T01:01:11.492Z,20.08
2023-01-13T01:03:38.487Z,17.95
2023-01-13T01:06:10.940Z,21.33
2023-01-13T01:08:37.575Z,18.65
2023-01-13T01:11:06.954Z,18.13
2023-01-13T01:13:34.110Z,17.23
2023-01-13T01:16:03.412Z,17.15
2023-01-13T01:18:30.015Z,16.98
2023-01-13T01:21:00.028Z,16.45
2023-01-13T01:23:29.290Z,17.13
2023-01-13T01:26:02.460Z,18.85
2023-01-13T01:28:29.300Z,16.80
2023-01-13T01:30:56.056Z,13.95
2023-01-13T01:33:22.698Z,17.02
2023-01-13T01:35:49.250Z,13.18
2023-01-13T01:38:16.009Z,15.13
2023-01-13T01:40:42.757Z,16.48
2023-01-13T01:44:05.369Z,15.10
2023-01-13T01:46:38.330Z,15.63
2023-01-13T01:49:18.220Z,10.88
2023-01-13T01:52:33.106Z,12.57
2023-01-13T01:55:05.201Z,13.50
2023-01-13T01:57:51.749Z,15.20
2023-01-13T02:00:18.943Z,12.65
2023-01-13T02:02:48.423Z,12.77
2023-01-13T02:05:15.701Z,11.93
2023-01-13T02:07:44.678Z,12.98
2023-01-13T02:10:15.015Z,13.20
2023-01-13T02:12:45.141Z,15.52
2023-01-13T02:15:15.532Z,15.45
2023-01-13T02:18:03.566Z,12.82
2023-01-13T02:20:45.561Z,15.25
2023-01-13T02:24:04.941Z,14.75
2023-01-13T02:26:59.024Z,14.63
2023-01-13T02:29:56.661Z,14.60
2023-01-13T02:32:33.273Z,16.05
2023-01-13T02:35:29.122Z,15.13
2023-01-13T02:37:58.600Z,17.67
2023-01-13T02:40:28.836Z,15.48
2023-01-13T02:43:25.586Z,14.95
2023-01-13T02:45:52.161Z,17.40
2023-01-13T02:48:22.911Z,17.55
2023-01-13T02:51:14.015Z,15.77
2023-01-13T02:54:10.069Z,18.58
2023-01-13T02:56:42.127Z,15.88
2023-01-13T02:59:10.547Z,16.70
2023-01-13T03:01:37.354Z,14.48
2023-01-13T03:04:45.156Z,19.73
2023-01-13T03:07:23.719Z,19.48
2023-01-13T03:10:02.125Z,19.23
2023-01-13T03:12:51.956Z,16.85
2023-01-13T03:15:37.123Z,16.25
2023-01-13T03:18:28.460Z,14.40
2023-01-13T03:21:36.496Z,14.82
2023-01-13T03:24:11.709Z,16.70
2023-01-13T03:26:52.760Z,18.52
2023-01-13T03:29:25.861Z,19.08
2023-01-13T03:32:13.878Z,16.65
2023-01-13T03:34:47.301Z,15.93
2023-01-13T03:37:16.861Z,12.70
2023-01-13T03:39:55.460Z,14.40
2023-01-13T03:42:25.876Z,11.13
2023-01-13T03:45:05.380Z,10.82
2023-01-13T03:47:49.496Z,11.02
2023-01-13T03:50:27.819Z,11.77
2023-01-13T03:53:02.349Z,12.63
2023-01-13T03:55:34.076Z,10.18
2023-01-13T03:58:15.893Z,9.68
2023-01-13T04:00:49.751Z,10.40
2023-01-13T04:03:33.804Z,11.15
2023-01-13T04:06:16.402Z,11.85
2023-01-13T04:08:52.585Z,10.07
2023-01-13T04:11:29.547Z,10.07
2023-01-13T04:13:57.616Z,11.77
2023-01-13T04:16:24.369Z,11.77
2023-01-13T04:18:50.976Z,15.82
2023-01-13T04:21:17.623Z,18.90
2023-01-13T04:23:44.190Z,24.95
2023-01-13T04:26:10.721Z,17.38
2023-01-13T04:28:37.490Z,16.58
2023-01-13T04:31:04.251Z,17.48
2023-01-13T04:33:30.994Z,19.30
2023-01-13T04:35:57.635Z,24.85
2023-01-13T04:38:24.255Z,22.65
2023-01-13T04:40:50.936Z,24.30
2023-01-13T04:43:17.717Z,28.48
2023-01-13T04:45:44.862Z,22.15
2023-01-13T04:48:11.621Z,21.15
2023-01-13T04:50:38.484Z,20.52
2023-01-13T04:53:05.899Z,21.05
2023-01-13T04:55:32.513Z,21.63
2023-01-13T04:58:04.642Z,24.27
2023-01-13T05:00:32.106Z,23.42
2023-01-13T05:02:59.563Z,22.65
2023-01-13T05:05:28.313Z,20.42
2023-01-13T05:07:55.390Z,20.27
2023-01-13T05:10:24.002Z,15.68
2023-01-13T05:13:09.607Z,19.83
2023-01-13T05:15:55.138Z,19.10
2023-01-13T05:18:21.908Z,21.42
2023-01-13T05:20:49.555Z,20.33
2023-01-13T05:23:34.727Z,27.73
2023-01-13T05:26:01.315Z,25.90
2023-01-13T05:28:33.004Z,27.67
2023-01-13T05:31:00.389Z,29.05
2023-01-13T05:33:27.084Z,25.25
2023-01-13T05:35:53.748Z,28.65
2023-01-13T05:38:20.720Z,27.92
2023-01-13T05:41:06.109Z,23.48
2023-01-13T05:43:33.297Z,24.55
2023-01-13T05:46:03.149Z,26.60
2023-01-13T05:48:31.249Z,26.58
2023-01-13T05:50:57.893Z,26.30
2023-01-13T05:53:25.202Z,25.95
2023-01-13T05:55:51.984Z,28.02
2023-01-13T05:58:20.668Z,26.15
2023-01-13T06:00:47.539Z,25.50
2023-01-13T06:03:16.003Z,23.90
2023-01-13T06:05:43.304Z,24.13
2023-01-13T06:08:12.204Z,24.02
2023-01-13T06:10:38.806Z,21.58
2023-01-13T06:13:06.742Z,25.20
2023-01-13T06:15:33.472Z,25.27
2023-01-13T06:18:02.438Z,23.80
2023-01-13T06:20:29.092Z,23.27
2023-01-13T06:22:55.785Z,24.23
2023-01-13T06:25:25.010Z,24.80
2023-01-13T06:27:53.259Z,27.00
2023-01-13T06:30:19.885Z,25.52
2023-01-13T06:32:52.137Z,25.70
2023-01-13T06:37:49.991Z,24.48
2023-01-13T06:40:17.315Z,24.45
2023-01-13T06:43:02.759Z,25.33
2023-01-13T06:45:30.834Z,24.83
2023-01-13T06:47:59.897Z,25.08
2023-01-13T06:50:28.136Z,20.63
2023-01-13T06:52:54.837Z,22.35
2023-01-13T06:55:21.759Z,24.00
2023-01-13T06:57:54.320Z,20.77
2023-01-13T07:00:22.621Z,19.38
2023-01-13T07:02:49.675Z,21.33
2023-01-13T07:05:17.993Z,20.25
2023-01-13T07:07:45.335Z,20.55
2023-01-13T07:10:14.242Z,21.50
2023-01-13T07:12:59.924Z,24.10
2023-01-13T07:15:27.246Z,19.88
2023-01-13T07:17:53.957Z,19.95
2023-01-13T07:20:20.601Z,19.33
2023-01-13T07:22:47.202Z,18.75
2023-01-13T07:25:13.862Z,23.55
2023-01-13T07:27:40.530Z,20.52
2023-01-13T07:30:07.896Z,16.83
2023-01-13T07:32:34.644Z,19.35
2023-01-13T07:35:05.363Z,21.52
2023-01-13T07:37:36.955Z,23.75
2023-01-13T07:40:04.993Z,20.20
2023-01-13T07:42:50.317Z,21.95
2023-01-13T07:45:17.105Z,20.23
2023-01-13T07:47:43.711Z,18.55
2023-01-13T07:50:10.801Z,17.02
2023-01-13T07:52:37.428Z,15.50
2023-01-13T07:55:04.227Z,19.00
2023-01-13T07:57:30.890Z,16.17
2023-01-13T07:59:57.532Z,14.77
2023-01-13T08:02:24.340Z,17.73
2023-01-13T08:04:51.161Z,13.65
2023-01-13T08:07:17.952Z,17.40
2023-01-13T08:09:44.574Z,15.43
2023-01-13T08:12:29.963Z,19.25
2023-01-13T08:14:56.639Z,15.48
2023-01-13T08:17:23.271Z,15.32
2023-01-13T08:19:49.921Z,12.38
2023-01-13T08:22:16.540Z,13.18
2023-01-13T08:24:43.180Z,14.75
2023-01-13T08:27:09.829Z,12.65
2023-01-13T08:29:36.463Z,16.05
2023-01-13T08:32:03.172Z,14.90
2023-01-13T08:34:29.972Z,14.57
2023-01-13T08:36:56.566Z,12.00
2023-01-13T08:39:25.154Z,9.88
2023-01-13T08:41:58.580Z,10.38
2023-01-13T08:44:30.743Z,9.38
2023-01-13T08:46:57.862Z,10.40
2023-01-13T08:49:25.733Z,9.77
2023-01-13T08:51:53.724Z,10.25
2023-01-13T08:54:20.745Z,8.88
2023-01-13T08:56:48.348Z,8.48
2023-01-13T08:59:17.246Z,9.75
2023-01-13T09:01:45.265Z,7.55
2023-01-13T09:04:21.523Z,7.25
2023-01-13T09:06:48.798Z,8.07
2023-01-13T09:09:16.225Z,7.63
2023-01-13T09:12:03.971Z,8.55
2023-01-13T09:14:33.223Z,10.95
2023-01-13T09:17:00.296Z,6.35
2023-01-13T09:19:28.287Z,6.13
2023-01-13T09:21:56.150Z,9.43
2023-01-13T09:24:23.576Z,7.15
2023-01-13T09:26:50.436Z,7.57
2023-01-13T09:29:17.540Z,5.03
2023-01-13T09:31:44.580Z,6.30
2023-01-13T09:34:37.100Z,7.50
2023-01-13T09:37:05.811Z,8.18
2023-01-13T09:39:33.499Z,8.93
2023-01-13T09:42:41.816Z,9.38
2023-01-13T09:45:26.367Z,5.90
2023-01-13T09:48:32.960Z,7.45
2023-01-13T09:51:28.362Z,8.50
2023-01-13T09:54:00.824Z,11.52
2023-01-13T09:58:54.041Z,6.68
2023-01-13T10:01:36.103Z,8.38
2023-01-13T10:04:12.636Z,7.95
2023-01-13T10:06:44.800Z,6.32
2023-01-13T10:09:27.384Z,8.90
2023-01-13T10:14:48.206Z,7.57
2023-01-13T10:17:23.452Z,8.18
2023-01-13T10:20:05.126Z,5.63
2023-01-13T10:22:40.729Z,6.90
2023-01-13T10:25:40.673Z,4.88
2023-01-13T10:28:18.468Z,10.68
2023-01-13T10:30:47.796Z,7.95
2023-01-13T10:33:20.814Z,6.43
2023-01-13T10:35:52.784Z,6.07
2023-01-13T10:38:21.063Z,9.88
2023-01-13T10:41:02.454Z,6.72
2023-01-13T10:43:30.587Z,4.70
2023-01-13T10:46:11.005Z,8.38
2023-01-13T10:48:43.443Z,7.82
2023-01-13T10:51:21.109Z,7.65
2023-01-13T10:54:13.863Z,10.43
2023-01-13T10:56:42.931Z,8.00
2023-01-13T10:59:14.871Z,6.00
2023-01-13T11:02:24.963Z,5.43
2023-01-13T11:05:02.735Z,4.28
2023-01-13T11:07:52.701Z,6.43
2023-01-13T11:10:24.629Z,7.63
2023-01-13T11:12:58.689Z,7.30
2023-01-13T11:15:38.319Z,7.45
2023-01-13T11:18:40.412Z,5.82
2023-01-13T11:21:23.235Z,6.65
2023-01-13T11:24:09.891Z,6.85
2023-01-13T11:26:52.056Z,8.30
2023-01-13T11:29:27.319Z,9.80
2023-01-13T11:32:03.518Z,12.20
2023-01-13T11:34:35.576Z,8.88
2023-01-13T11:37:09.734Z,13.77
2023-01-13T11:39:55.312Z,10.55
2023-01-13T11:42:32.179Z,6.15
2023-01-13T11:45:17.563Z,6.03
2023-01-13T11:47:51.320Z,5.07
2023-01-13T11:50:23.687Z,11.60
2023-01-13T11:55:45.349Z,6.22
2023-01-13T11:58:33.731Z,7.22
2023-01-13T12:01:22.928Z,6.78
2023-01-13T12:04:22.348Z,11.35
2023-01-13T12:06:59.102Z,11.50
2023-01-13T12:09:39.282Z,7.70
2023-01-13T12:12:44.436Z,7.80
2023-01-13T12:15:26.136Z,6.97
2023-01-13T12:18:13.673Z,5.78
2023-01-13T12:21:08.035Z,7.00
2023-01-13T12:23:51.894Z,7.65
2023-01-13T12:26:18.548Z,6.43
2023-01-13T12:28:54.170Z,4.82
2023-01-13T12:31:22.309Z,6.65
2023-01-13T12:33:55.010Z,5.85
2023-01-13T12:36:49.785Z,7.47
2023-01-13T12:39:34.637Z,6.03
2023-01-13T12:42:51.717Z,6.90
2023-01-13T12:45:21.251Z,6.90
2023-01-13T12:47:48.033Z,4.82
2023-01-13T12:50:26.591Z,4.47
2023-01-13T12:52:56.998Z,5.05
2023-01-13T12:55:36.429Z,6.50
2023-01-13T12:58:06.080Z,7.82
2023-01-13T13:00:41.660Z,9.95
2023-01-13T13:03:09.995Z,6.15
2023-01-13T13:05:55.319Z,6.93
2023-01-13T13:08:40.050Z,4.93
2023-01-13T13:11:34.164Z,8.35
2023-01-13T13:14:03.795Z,4.93
2023-01-13T13:16:30.470Z,7.95
2023-01-13T13:19:19.335Z,5.75
2023-01-13T13:22:18.751Z,6.88
2023-01-13T13:24:51.324Z,6.78
2023-01-13T13:27:18.945Z,6.72
2023-01-13T13:29:57.842Z,8.43
2023-01-13T13:32:27.800Z,9.65
2023-01-13T13:35:18.471Z,9.35
2023-01-13T13:38:09.630Z,7.10
2023-01-13T13:41:04.468Z,9.90
2023-01-13T13:44:03.673Z,6.20
2023-01-13T13:46:46.911Z,7.75
2023-01-13T13:49:41.313Z,10.13
2023-01-13T13:52:26.802Z,9.07
2023-01-13T13:54:58.214Z,12.95
2023-01-13T13:57:39.680Z,17.50
2023-01-13T14:00:19.175Z,11.05
2023-01-13T14:02:54.067Z,10.82
2023-01-13T14:05:24.159Z,13.30
2023-01-13T14:08:01.822Z,16.02
2023-01-13T14:10:32.255Z,12.32
2023-01-13T14:13:25.059Z,12.30
2023-01-13T14:16:06.858Z,12.13
2023-01-13T14:18:44.348Z,11.35
2023-01-13T14:21:22.710Z,15.75
2023-01-13T14:23:54.961Z,16.30
2023-01-13T14:28:53.582Z,17.58
2023-01-13T14:31:20.794Z,17.88
2023-01-13T14:33:51.473Z,18.58
2023-01-13T14:36:23.013Z,19.08
2023-01-13T14:39:16.562Z,17.05
2023-01-13T14:41:43.109Z,20.02
2023-01-13T14:44:35.057Z,18.67
2023-01-13T14:47:22.945Z,16.83
2023-01-13T14:49:52.647Z,15.25
2023-01-13T14:52:24.069Z,17.13
2023-01-13T14:55:19.868Z,19.42
2023-01-13T14:57:49.784Z,16.92
2023-01-13T15:00:18.591Z,21.30
2023-01-13T15:02:57.595Z,26.52
2023-01-13T15:05:27.157Z,20.27
2023-01-13T15:08:02.545Z,17.63
2023-01-13T15:10:31.966Z,22.23
2023-01-13T15:13:02.501Z,19.20
2023-01-13T15:15:34.782Z,18.55
2023-01-13T15:20:29.464Z,21.05
2023-01-13T15:22:58.760Z,23.00
2023-01-13T15:25:25.433Z,18.92
2023-01-13T15:27:53.147Z,18.73
2023-01-13T15:30:25.397Z,21.90
2023-01-13T15:32:55.891Z,19.98
2023-01-13T15:35:24.852Z,22.65
2023-01-13T15:37:51.895Z,21.02
2023-01-13T15:40:22.819Z,22.45
2023-01-13T15:43:08.470Z,20.17
2023-01-13T15:45:55.799Z,22.88
2023-01-13T15:48:24.233Z,23.83
2023-01-13T15:50:51.331Z,25.45
2023-01-13T15:53:18.197Z,23.52
2023-01-13T15:55:49.425Z,22.70
2023-01-13T15:58:28.089Z,19.02
2023-01-13T16:00:55.146Z,20.63
2023-01-13T16:03:22.079Z,18.75
2023-01-13T16:05:48.731Z,21.77
2023-01-13T16:08:16.859Z,25.80
2023-01-13T16:10:44.842Z,31.35
2023-01-13T16:13:12.689Z,22.55
2023-01-13T16:15:50.181Z,22.95
2023-01-13T16:18:19.945Z,23.42
2023-01-13T16:20:47.108Z,22.08
2023-01-13T16:23:14.018Z,23.48
2023-01-13T16:25:46.579Z,19.95
2023-01-13T16:28:24.040Z,20.70
2023-01-13T16:30:51.249Z,24.10
2023-01-13T16:33:18.062Z,29.77
2023-01-13T16:36:10.311Z,25.38
2023-01-13T16:38:31.276Z,28.23
2023-01-13T16:40:58.127Z,27.65
2023-01-13T16:43:24.758Z,22.05
2023-01-13T16:45:51.513Z,26.88
2023-01-13T16:48:20.187Z,27.27
2023-01-13T16:50:47.048Z,25.60
2023-01-13T16:53:13.702Z,22.80
2023-01-13T16:55:42.045Z,21.67
2023-01-13T16:58:19.366Z,21.75
2023-01-13T17:00:47.484Z,24.90
2023-01-13T17:03:15.326Z,25.55
2023-01-13T17:05:43.706Z,28.42
2023-01-13T17:08:17.748Z,27.75
2023-01-13T17:10:45.569Z,28.67
2023-01-13T17:13:16.376Z,28.77
2023-01-13T17:15:44.044Z,23.38
2023-01-13T17:18:11.612Z,21.10
2023-01-13T17:20:38.174Z,23.02
2023-01-13T17:23:04.737Z,20.60
2023-01-13T17:25:31.450Z,20.08
2023-01-13T17:27:58.283Z,15.80
2023-01-13T17:30:27.196Z,17.35
2023-01-13T17:32:53.976Z,21.27
2023-01-13T17:35:24.774Z,21.92
2023-01-13T17:37:52.983Z,21.88
2023-01-13T17:40:19.878Z,20.30
2023-01-13T17:42:48.371Z,23.52
2023-01-13T17:45:16.334Z,21.27
2023-01-13T17:47:42.955Z,30.52
2023-01-13T17:50:10.296Z,27.75
2023-01-13T17:52:36.914Z,30.23
2023-01-13T17:55:03.731Z,35.63
2023-01-13T17:57:30.316Z,26.45
2023-01-13T17:59:58.338Z,24.92
2023-01-13T18:02:25.258Z,25.10
2023-01-13T18:04:52.122Z,24.50
2023-01-13T18:07:18.920Z,22.88
2023-01-13T18:09:45.548Z,26.75
2023-01-13T18:12:12.259Z,35.95
2023-01-13T18:14:38.975Z,31.80
2023-01-13T18:17:06.110Z,39.15
2023-01-13T18:19:51.325Z,40.10
2023-01-13T18:22:36.660Z,50.70
2023-01-13T18:25:22.178Z,53.22
2023-01-13T18:27:48.853Z,41.13
2023-01-13T18:30:15.768Z,32.88
2023-01-13T18:32:42.585Z,27.45
2023-01-13T18:35:10.596Z,22.00
2023-01-13T18:37:40.385Z,24.92
2023-01-13T18:40:09.589Z,21.50
2023-01-13T18:42:54.308Z,21.58
2023-01-13T18:45:24.417Z,26.30
2023-01-13T18:47:52.104Z,24.58
2023-01-13T18:50:19.162Z,22.88
2023-01-13T18:52:46.285Z,28.95
2023-01-13T18:55:13.444Z,28.48
2023-01-13T18:57:40.611Z,25.67
2023-01-13T19:00:14.165Z,27.80
2023-01-13T19:02:41.294Z,25.52
2023-01-13T19:05:08.716Z,23.00
2023-01-13T19:07:36.201Z,23.15
2023-01-13T19:10:05.000Z,25.38
2023-01-13T19:12:33.706Z,24.67
2023-01-13T19:15:01.927Z,27.83
2023-01-13T19:17:33.623Z,22.70
2023-01-13T19:20:00.961Z,34.03
2023-01-13T19:22:30.972Z,32.55
2023-01-13T19:24:58.332Z,33.97
2023-01-13T19:27:27.472Z,46.15
2023-01-13T19:29:57.654Z,39.47
2023-01-13T19:32:24.482Z,42.25
2023-01-13T19:34:51.485Z,30.23
2023-01-13T19:37:19.633Z,25.90
2023-01-13T19:39:46.613Z,26.95
2023-01-13T19:42:36.895Z,24.88
2023-01-13T19:45:22.671Z,29.83
2023-01-13T19:47:49.503Z,19.38
2023-01-13T19:50:16.363Z,23.33
2023-01-13T19:52:43.828Z,18.95
2023-01-13T19:55:12.509Z,29.88
2023-01-13T19:57:40.587Z,27.55
2023-01-13T20:00:09.369Z,26.25
2023-01-13T20:02:37.098Z,26.85
2023-01-13T20:05:06.720Z,24.77
2023-01-13T20:07:33.771Z,21.98
2023-01-13T20:10:01.692Z,30.48
2023-01-13T20:12:29.277Z,29.00
2023-01-13T20:14:56.897Z,29.60
2023-01-13T20:17:25.702Z,26.88
2023-01-13T20:19:52.921Z,26.20
2023-01-13T20:22:19.770Z,31.63
2023-01-13T20:24:46.377Z,28.52
2023-01-13T20:27:13.059Z,33.33
2023-01-13T20:29:39.698Z,44.40
2023-01-13T20:32:06.437Z,83.85
2023-01-13T20:34:33.267Z,75.00
2023-01-13T20:37:00.372Z,96.03
2023-01-13T20:39:27.182Z,41.50
2023-01-13T20:42:13.023Z,81.78
2023-01-13T20:44:39.969Z,81.82
2023-01-13T20:47:07.169Z,64.05
2023-01-13T20:49:36.206Z,69.47
2023-01-13T20:52:09.252Z,51.95
2023-01-13T20:54:37.149Z,47.10
2023-01-13T20:57:07.934Z,38.92
2023-01-13T20:59:34.660Z,35.10
2023-01-13T21:02:01.566Z,35.53
2023-01-13T21:04:28.880Z,33.08
2023-01-13T21:06:56.340Z,37.42
2023-01-13T21:09:24.380Z,52.00
2023-01-13T21:12:09.593Z,32.50
2023-01-13T21:14:54.835Z,38.88
2023-01-13T21:17:40.795Z,44.78
2023-01-13T21:20:10.306Z,39.92
2023-01-13T21:22:37.264Z,36.63
2023-01-13T21:25:04.865Z,32.45
2023-01-13T21:27:32.090Z,37.38
2023-01-13T21:30:00.783Z,31.58
2023-01-13T21:32:27.340Z,35.63
2023-01-13T21:34:53.929Z,43.15
2023-01-13T21:37:20.692Z,45.45
2023-01-13T21:39:47.310Z,47.85
2023-01-13T21:42:33.895Z,54.47
2023-01-13T21:45:18.939Z,39.92
2023-01-13T21:47:48.617Z,40.28
2023-01-13T21:50:21.153Z,43.38
2023-01-13T21:52:54.681Z,33.17
2023-01-13T21:55:25.363Z,37.50
2023-01-13T21:57:59.515Z,33.58
2023-01-13T22:00:28.223Z,41.33
2023-01-13T22:02:55.257Z,32.88
2023-01-13T22:05:23.905Z,35.15
2023-01-13T22:07:50.932Z,38.95
2023-01-13T22:10:22.913Z,35.35
2023-01-13T22:12:53.230Z,41.95
2023-01-13T22:15:20.341Z,38.17
2023-01-13T22:17:50.965Z,39.33
2023-01-13T22:20:18.424Z,32.67
2023-01-13T22:22:45.661Z,30.75
2023-01-13T22:25:14.246Z,31.90
2023-01-13T22:27:43.202Z,36.00
2023-01-13T22:30:15.872Z,33.65
2023-01-13T22:32:42.632Z,32.55
2023-01-13T22:35:11.243Z,55.42
2023-01-13T22:37:38.659Z,68.05
2023-01-13T22:40:07.726Z,105.32
2023-01-13T22:42:39.365Z,122.10
2023-01-13T22:45:09.974Z,107.15
2023-01-13T22:47:36.586Z,143.13
2023-01-13T22:50:04.165Z,473.15
2023-01-13T22:52:30.770Z,612.20
2023-01-13T22:54:57.739Z,442.50
2023-01-13T22:57:24.407Z,186.18
2023-01-13T22:59:50.998Z,64.22
2023-01-13T23:02:17.760Z,42.85
2023-01-13T23:04:44.443Z,42.78
2023-01-13T23:07:11.103Z,101.07
2023-01-13T23:09:37.717Z,93.85
2023-01-13T23:12:04.536Z,91.65
2023-01-13T23:14:31.180Z,80.85
2023-01-13T23:16:57.852Z,56.20
2023-01-13T23:19:24.874Z,42.35
2023-01-13T23:21:51.534Z,46.55
2023-01-13T23:24:18.136Z,42.17
2023-01-13T23:26:44.715Z,48.08
2023-01-13T23:29:13.219Z,47.92
2023-01-13T23:31:40.447Z,50.42
2023-01-13T23:34:07.519Z,58.15
2023-01-13T23:36:37.139Z,54.65
2023-01-13T23:39:03.884Z,47.83
2023-01-13T23:41:30.471Z,51.75
2023-01-13T23:43:59.619Z,53.60
2023-01-13T23:46:28.103Z,47.28
2023-01-13T23:48:55.589Z,43.83
2023-01-13T23:51:23.053Z,37.97
2023-01-13T23:53:50.892Z,36.85
2023-01-13T23:56:21.463Z,39.53
2023-01-13T23:58:49.100Z,35.08
